createdAt,value
2022-12-23T00:01:30.192Z,99976.25
2022-12-23T00:04:00.738Z,99982.28
2022-12-23T00:06:28.886Z,99968.94
2022-12-23T00:08:59.498Z,99971.53
2022-12-23T00:11:28.751Z,99970.44
2022-12-23T00:14:20.465Z,99967.81
2022-12-23T00:16:49.389Z,99962.00
2022-12-23T00:19:19.200Z,99965.38
2022-12-23T00:21:48.380Z,99960.38
2022-12-23T00:24:16.653Z,99960.25
2022-12-23T00:26:45.228Z,99952.28
2022-12-23T00:29:13.145Z,99952.28
2022-12-23T00:31:41.537Z,99944.94
2022-12-23T00:34:10.915Z,99940.50
2022-12-23T00:36:41.129Z,99940.91
2022-12-23T00:39:31.187Z,99943.69
2022-12-23T00:42:17.196Z,99937.28
2022-12-23T00:44:45.624Z,99936.47
2022-12-23T00:47:30.670Z,99936.25
2022-12-23T00:50:02.007Z,99935.41
2022-12-23T00:52:33.904Z,99918.16
2022-12-23T00:55:02.212Z,99926.91
2022-12-23T00:57:30.691Z,99927.03
2022-12-23T00:59:58.841Z,99924.25
2022-12-23T01:02:45.594Z,99915.50
2022-12-23T01:05:33.558Z,99916.63
2022-12-23T01:08:04.332Z,99918.28
2022-12-23T01:10:32.669Z,99909.53
2022-12-23T01:13:02.855Z,99908.56
2022-12-23T01:15:31.146Z,99907.72
2022-12-23T01:17:59.614Z,99915.34
2022-12-23T01:20:27.942Z,99910.94
2022-12-23T01:22:55.972Z,99915.91
2022-12-23T01:25:25.607Z,99915.34
2022-12-23T01:27:54.067Z,99927.16
2022-12-23T01:30:23.002Z,99917.34
2022-12-23T01:32:51.019Z,99912.34
2022-12-23T01:35:20.296Z,99909.28
2022-12-23T01:37:48.827Z,99899.31
2022-12-23T01:40:17.052Z,99904.41
2022-12-23T01:42:46.515Z,99898.16
2022-12-23T01:45:19.500Z,99900.94
2022-12-23T01:47:51.362Z,99909.53
2022-12-23T01:50:22.160Z,99891.22
2022-12-23T01:52:52.560Z,99892.19
2022-12-23T01:55:24.472Z,99887.63
2022-12-23T01:57:55.973Z,99892.75
2022-12-23T02:00:42.068Z,99888.31
2022-12-23T02:03:27.464Z,99890.13
2022-12-23T02:06:16.192Z,99881.91
2022-12-23T02:09:03.690Z,99873.47
2022-12-23T02:11:44.501Z,99879.25
2022-12-23T02:14:44.645Z,99877.91
2022-12-23T02:17:21.193Z,99879.69
2022-12-23T02:20:13.038Z,99891.09
2022-12-23T02:22:56.880Z,99867.38
2022-12-23T02:25:48.205Z,99871.25
2022-12-23T02:28:34.166Z,99864.84
2022-12-23T02:31:10.468Z,99859.88
2022-12-23T02:33:50.213Z,99860.41
2022-12-23T02:36:39.162Z,99852.34
2022-12-23T02:39:10.126Z,99850.44
2022-12-23T02:41:44.154Z,99843.06
2022-12-23T02:44:21.265Z,99844.03
2022-12-23T02:46:52.822Z,99848.19
2022-12-23T02:49:24.815Z,99845.03
2022-12-23T02:51:55.896Z,99836.81
2022-12-23T02:54:29.098Z,99826.84
2022-12-23T02:56:58.343Z,99825.97
2022-12-23T02:59:34.317Z,99821.00
2022-12-23T03:02:04.097Z,99826.81
2022-12-23T03:04:32.878Z,99819.31
2022-12-23T03:07:09.088Z,99820.16
2022-12-23T03:09:46.832Z,99812.78
2022-12-23T03:12:24.161Z,99802.41
2022-12-23T03:15:02.101Z,99802.66
2022-12-23T03:17:48.846Z,99800.44
2022-12-23T03:20:26.128Z,99802.38
2022-12-23T03:23:02.257Z,99806.97
2022-12-23T03:25:34.578Z,99799.31
2022-12-23T03:28:07.307Z,99803.38
2022-12-23T03:30:35.797Z,99809.63
2022-12-23T03:33:10.017Z,99805.72
2022-12-23T03:35:42.266Z,99802.09
2022-12-23T03:38:13.176Z,99808.19
2022-12-23T03:40:44.463Z,99803.75
2022-12-23T03:43:16.851Z,99801.56
2022-12-23T03:45:49.887Z,99799.16
2022-12-23T03:48:24.414Z,99787.09
2022-12-23T03:50:55.372Z,99789.19
2022-12-23T03:53:25.899Z,99784.91
2022-12-23T03:55:57.555Z,99787.94
2022-12-23T03:58:32.487Z,99791.16
2022-12-23T04:01:06.898Z,99786.56
2022-12-23T04:03:41.065Z,99778.34
2022-12-23T04:06:13.219Z,99778.66
2022-12-23T04:08:43.043Z,99776.53
2022-12-23T04:11:11.749Z,99782.66
2022-12-23T04:13:40.049Z,99783.16
2022-12-23T04:16:08.772Z,99779.41
2022-12-23T04:18:38.075Z,99773.53
2022-12-23T04:21:06.969Z,99776.78
2022-12-23T04:23:35.274Z,99766.44
2022-12-23T04:26:03.365Z,99775.03
2022-12-23T04:28:31.529Z,99773.75
2022-12-23T04:30:59.666Z,99766.22
2022-12-23T04:33:27.781Z,99772.47
2022-12-23T04:35:57.167Z,99772.03
2022-12-23T04:38:25.285Z,99768.47
2022-12-23T04:40:55.052Z,99775.13
2022-12-23T04:43:22.997Z,99770.16
2022-12-23T04:45:53.194Z,99764.00
2022-12-23T04:48:24.018Z,99764.00
2022-12-23T04:50:53.527Z,99765.09
2022-12-23T04:53:23.115Z,99761.63
2022-12-23T04:55:52.184Z,99761.47
2022-12-23T04:58:22.461Z,99762.63
2022-12-23T05:00:50.993Z,99760.66
2022-12-23T05:03:19.467Z,99768.97
2022-12-23T05:05:49.003Z,99764.13
2022-12-23T05:08:17.979Z,99764.13
2022-12-23T05:10:47.596Z,99762.72
2022-12-23T05:13:15.782Z,99757.03
2022-12-23T05:15:45.342Z,99754.28
2022-12-23T05:18:14.150Z,99761.22
2022-12-23T05:20:42.132Z,99767.59
2022-12-23T05:23:10.726Z,99769.13
2022-12-23T05:25:41.447Z,99776.91
2022-12-23T05:28:13.880Z,99769.81
2022-12-23T05:30:42.389Z,99766.34
2022-12-23T05:33:12.549Z,99763.56
2022-12-23T05:35:40.818Z,99753.00
2022-12-23T05:38:10.181Z,99761.97
2022-12-23T05:40:38.636Z,99759.50
2022-12-23T05:43:07.931Z,99757.81
2022-12-23T05:45:39.001Z,99765.75
2022-12-23T05:48:07.734Z,99763.09
2022-12-23T05:50:36.437Z,99772.53
2022-12-23T05:53:09.582Z,99770.41
2022-12-23T05:55:38.343Z,99776.41
2022-12-23T05:58:06.824Z,99770.03
2022-12-23T06:00:35.978Z,99756.81
2022-12-23T06:03:08.560Z,99761.53
2022-12-23T06:05:39.031Z,99762.50
2022-12-23T06:08:08.010Z,99776.69
2022-12-23T06:10:36.348Z,99764.16
2022-12-23T06:13:04.638Z,99780.72
2022-12-23T06:15:33.398Z,99783.34
2022-12-23T06:18:02.756Z,99777.78
2022-12-23T06:20:32.629Z,99778.81
2022-12-23T06:23:00.857Z,99786.22
2022-12-23T06:25:29.137Z,99788.03
2022-12-23T06:27:59.526Z,99789.09
2022-12-23T06:30:27.527Z,99796.63
2022-12-23T06:32:58.140Z,99808.00
2022-12-23T06:35:26.459Z,99803.56
2022-12-23T06:37:56.469Z,99802.84
2022-12-23T06:40:25.515Z,99805.59
2022-12-23T06:42:54.203Z,99810.34
2022-12-23T06:45:22.566Z,99807.72
2022-12-23T06:47:50.551Z,99815.47
2022-12-23T06:50:18.725Z,99822.41
2022-12-23T06:52:49.087Z,99829.94
2022-12-23T06:55:18.891Z,99827.97
2022-12-23T06:57:47.145Z,99836.72
2022-12-23T07:00:18.696Z,99839.88
2022-12-23T07:02:46.959Z,99830.84
2022-12-23T07:05:17.216Z,99838.75
2022-12-23T07:07:45.466Z,99836.56
2022-12-23T07:10:13.622Z,99843.50
2022-12-23T07:12:50.366Z,99845.16
2022-12-23T07:15:19.255Z,99847.66
2022-12-23T07:17:47.882Z,99852.34
2022-12-23T07:20:17.058Z,99854.84
2022-12-23T07:22:47.150Z,99852.44
2022-12-23T07:25:17.069Z,99848.81
2022-12-23T07:27:46.889Z,99855.09
2022-12-23T07:30:15.299Z,99859.09
2022-12-23T07:32:44.988Z,99853.81
2022-12-23T07:35:13.154Z,99860.22
2022-12-23T07:37:41.560Z,99863.38
2022-12-23T07:40:12.184Z,99862.81
2022-12-23T07:42:46.294Z,99865.97
2022-12-23T07:45:18.045Z,99861.22
2022-12-23T07:47:46.371Z,99867.13
2022-12-23T07:50:14.552Z,99865.16
2022-12-23T07:52:43.502Z,99865.31
2022-12-23T07:55:11.730Z,99870.66
2022-12-23T07:57:40.655Z,99876.69
2022-12-23T08:00:10.444Z,99875.41
2022-12-23T08:02:44.832Z,99881.38
2022-12-23T08:05:14.783Z,99880.53
2022-12-23T08:07:45.017Z,99888.94
2022-12-23T08:10:13.799Z,99890.88
2022-12-23T08:12:42.020Z,99894.88
2022-12-23T08:15:11.349Z,99888.63
2022-12-23T08:17:42.495Z,99898.81
2022-12-23T08:20:12.876Z,99904.47
2022-12-23T08:22:41.008Z,99903.53
2022-12-23T08:25:09.953Z,99902.97
2022-12-23T08:27:38.461Z,99909.44
2022-12-23T08:30:08.209Z,99905.16
2022-12-23T08:32:37.055Z,99912.72
2022-12-23T08:35:05.793Z,99914.44
2022-12-23T08:37:35.338Z,99903.00
2022-12-23T08:40:05.265Z,99908.31
2022-12-23T08:42:33.464Z,99913.75
2022-12-23T08:45:02.332Z,99907.78
2022-12-23T08:47:31.409Z,99902.22
2022-12-23T08:49:59.522Z,99905.16
2022-12-23T08:52:27.855Z,99911.13
2022-12-23T08:54:59.928Z,99917.75
2022-12-23T08:57:27.978Z,99914.00
2022-12-23T08:59:56.752Z,99912.47
2022-12-23T09:02:25.530Z,99921.16
2022-12-23T09:04:53.705Z,99920.03
2022-12-23T09:07:23.081Z,99919.56
2022-12-23T09:09:51.646Z,99929.03
2022-12-23T09:12:23.935Z,99946.97
2022-12-23T09:14:52.719Z,99944.75
2022-12-23T09:17:21.347Z,99943.69
2022-12-23T09:19:52.997Z,99951.09
2022-12-23T09:22:23.180Z,99955.25
2022-12-23T09:24:51.294Z,99956.25
2022-12-23T09:27:21.366Z,99954.81
2022-12-23T09:29:50.942Z,99959.97
2022-12-23T09:32:20.003Z,99965.78
2022-12-23T09:34:48.561Z,99968.75
2022-12-23T09:37:17.372Z,99976.22
2022-12-23T09:39:47.691Z,99976.75
2022-12-23T09:42:41.865Z,99986.00
2022-12-23T09:45:16.624Z,100004.91
2022-12-23T09:48:28.548Z,100003.84
2022-12-23T09:50:57.243Z,100003.97
2022-12-23T09:53:28.659Z,99995.38
2022-12-23T09:56:02.093Z,100005.03
2022-12-23T09:58:36.566Z,100011.47
2022-12-23T10:01:14.611Z,100021.97
2022-12-23T10:04:32.697Z,100026.97
2022-12-23T10:07:19.636Z,100029.06
2022-12-23T10:09:49.611Z,100031.69
2022-12-23T10:12:27.637Z,100017.19
2022-12-23T10:15:00.798Z,100028.44
2022-12-23T10:17:41.905Z,100014.72
2022-12-23T10:20:19.064Z,100020.28
2022-12-23T10:22:48.481Z,100018.41
2022-12-23T10:25:21.320Z,100025.81
2022-12-23T10:27:49.369Z,100018.97
2022-12-23T10:33:15.360Z,100023.72
2022-12-23T10:35:47.331Z,100019.34
2022-12-23T10:38:40.012Z,100013.59
2022-12-23T10:41:16.381Z,100014.53
2022-12-23T10:43:55.525Z,100013.31
2022-12-23T10:46:30.844Z,100008.13
2022-12-23T10:49:06.425Z,100014.59
2022-12-23T10:51:38.657Z,100007.44
2022-12-23T10:54:10.051Z,100010.25
2022-12-23T10:56:40.212Z,100015.44
2022-12-23T10:59:10.455Z,100020.53
2022-12-23T11:01:41.346Z,100025.34
2022-12-23T11:04:15.782Z,100018.47
2022-12-23T11:06:46.986Z,100018.03
2022-12-23T11:09:19.391Z,100025.13
2022-12-23T11:11:55.584Z,100029.75
2022-12-23T11:14:32.063Z,100022.25
2022-12-23T11:17:03.635Z,100030.84
2022-12-23T11:19:31.708Z,100023.22
2022-12-23T11:22:02.266Z,100024.19
2022-12-23T11:24:35.435Z,100022.09
2022-12-23T11:27:06.844Z,100020.28
2022-12-23T11:29:36.424Z,100027.84
2022-12-23T11:32:17.191Z,100021.72
2022-12-23T11:34:47.479Z,100020.00
2022-12-23T11:37:27.708Z,100037.59
2022-12-23T11:39:55.930Z,100031.00
2022-12-23T11:42:30.308Z,100040.25
2022-12-23T11:45:00.863Z,100039.09
2022-12-23T11:47:37.087Z,100037.06
2022-12-23T11:50:30.010Z,100041.06
2022-12-23T11:53:13.753Z,100051.78
2022-12-23T11:55:48.149Z,100055.66
2022-12-23T11:58:21.911Z,100053.41
2022-12-23T12:00:56.547Z,100045.97
2022-12-23T12:03:32.337Z,100045.88
2022-12-23T12:06:01.786Z,100050.59
2022-12-23T12:08:34.097Z,100063.81
2022-12-23T12:11:06.956Z,100075.44
2022-12-23T12:13:41.530Z,100069.03
2022-12-23T12:16:22.042Z,100070.94
2022-12-23T12:18:55.743Z,100077.63
2022-12-23T12:21:26.646Z,100077.47
2022-12-23T12:24:17.321Z,100073.88
2022-12-23T12:26:51.080Z,100071.97
2022-12-23T12:29:23.908Z,100076.28
2022-12-23T12:31:55.075Z,100072.66
2022-12-23T12:34:31.453Z,100061.63
2022-12-23T12:37:02.183Z,100066.38
2022-12-23T12:39:33.886Z,100075.44
2022-12-23T12:42:06.979Z,100069.69
2022-12-23T12:44:41.610Z,100061.09
2022-12-23T12:47:28.532Z,100055.44
2022-12-23T12:50:12.322Z,100061.56
2022-12-23T12:52:41.687Z,100056.34
2022-12-23T12:55:17.805Z,100061.63
2022-12-23T12:57:46.210Z,100056.44
2022-12-23T13:00:19.728Z,100050.66
2022-12-23T13:03:04.583Z,100046.97
2022-12-23T13:05:54.799Z,100048.19
2022-12-23T13:08:31.788Z,100060.94
2022-12-23T13:11:08.984Z,100056.22
2022-12-23T13:13:44.607Z,100064.69
2022-12-23T13:16:22.783Z,100055.06
2022-12-23T13:18:56.647Z,100059.59
2022-12-23T13:21:30.666Z,100048.41
2022-12-23T13:24:04.821Z,100050.91
2022-12-23T13:26:38.542Z,100045.06
2022-12-23T13:29:37.701Z,100041.38
2022-12-23T13:32:17.950Z,100033.47
2022-12-23T13:34:54.717Z,100033.13
2022-12-23T13:37:31.547Z,100020.19
2022-12-23T13:40:08.655Z,100017.91
2022-12-23T13:42:39.702Z,100020.47
2022-12-23T13:45:15.073Z,100029.44
2022-12-23T13:47:50.751Z,100027.47
2022-12-23T13:50:24.596Z,100017.72
2022-12-23T13:53:08.315Z,100022.97
2022-12-23T13:55:58.899Z,100019.09
2022-12-23T13:58:28.673Z,100023.03
2022-12-23T14:01:20.904Z,100028.44
2022-12-23T14:03:50.750Z,100023.84
2022-12-23T14:06:22.660Z,100023.78
2022-12-23T14:08:53.868Z,100029.44
2022-12-23T14:11:25.876Z,100030.78
2022-12-23T14:13:57.149Z,100026.78
2022-12-23T14:16:37.219Z,100028.84
2022-12-23T14:19:30.215Z,100038.25
2022-12-23T14:22:05.959Z,100043.56
2022-12-23T14:25:16.434Z,100035.06
2022-12-23T14:27:54.052Z,100036.59
2022-12-23T14:30:25.627Z,100033.09
2022-12-23T14:32:56.677Z,100030.34
2022-12-23T14:35:29.471Z,100031.69
2022-12-23T14:38:12.546Z,100037.97
2022-12-23T14:40:52.956Z,100026.41
2022-12-23T14:44:02.915Z,100032.69
2022-12-23T14:46:58.656Z,100037.38
2022-12-23T14:49:41.104Z,100041.22
2022-12-23T14:52:58.501Z,100045.09
2022-12-23T14:55:46.524Z,100043.81
2022-12-23T14:58:38.064Z,100040.00
2022-12-23T15:01:12.622Z,100044.31
2022-12-23T15:03:45.070Z,100043.91
2022-12-23T15:06:17.831Z,100048.88
2022-12-23T15:08:50.369Z,100045.53
2022-12-23T15:11:24.174Z,100043.03
2022-12-23T15:13:54.578Z,100052.75
2022-12-23T15:16:31.887Z,100053.72
2022-12-23T15:19:03.461Z,100051.59
2022-12-23T15:21:35.883Z,100046.41
2022-12-23T15:24:04.430Z,100045.59
2022-12-23T15:26:34.059Z,100046.19
2022-12-23T15:29:03.272Z,100045.25
2022-12-23T15:31:42.598Z,100048.94
2022-12-23T15:34:17.317Z,100046.53
2022-12-23T15:36:47.500Z,100048.34
2022-12-23T15:39:21.650Z,100039.72
2022-12-23T15:41:49.896Z,100040.13
2022-12-23T15:44:21.544Z,100039.59
2022-12-23T15:46:52.196Z,100032.25
2022-12-23T15:49:24.242Z,100037.84
2022-12-23T15:52:16.576Z,100032.72
2022-12-23T15:54:47.757Z,100031.88
2022-12-23T15:57:19.870Z,100025.88
2022-12-23T15:59:49.261Z,100029.50
2022-12-23T16:05:10.121Z,100035.59
2022-12-23T16:07:41.816Z,100038.69
2022-12-23T16:10:16.653Z,100041.31
2022-12-23T16:12:45.663Z,100039.50
2022-12-23T16:15:21.861Z,100055.34
2022-12-23T16:17:53.319Z,100056.03
2022-12-23T16:20:23.734Z,100051.69
2022-12-23T16:22:54.127Z,100045.16
2022-12-23T16:25:24.813Z,100046.81
2022-12-23T16:27:57.629Z,100054.31
2022-12-23T16:30:29.859Z,100053.72
2022-12-23T16:33:02.278Z,100053.47
2022-12-23T16:35:37.610Z,100059.53
2022-12-23T16:38:15.292Z,100052.34
2022-12-23T16:40:44.197Z,100050.00
2022-12-23T16:43:13.208Z,100056.19
2022-12-23T16:45:42.987Z,100054.84
2022-12-23T16:48:20.520Z,100046.25
2022-12-23T16:50:48.951Z,100046.25
2022-12-23T16:53:19.091Z,100040.69
2022-12-23T16:55:53.815Z,100039.31
2022-12-23T16:58:28.372Z,100028.72
2022-12-23T17:00:57.071Z,100029.31
2022-12-23T17:03:27.057Z,100025.13
2022-12-23T17:05:55.822Z,100025.00
2022-12-23T17:08:23.834Z,100016.81
2022-12-23T17:10:52.452Z,100014.16
2022-12-23T17:13:22.997Z,100013.63
2022-12-23T17:15:53.158Z,100004.72
2022-12-23T17:18:21.285Z,100011.06
2022-12-23T17:20:54.229Z,100012.88
2022-12-23T17:23:33.816Z,100002.88
2022-12-23T17:26:02.494Z,100000.38
2022-12-23T17:28:33.292Z,99998.84
2022-12-23T17:31:08.735Z,99994.00
2022-12-23T17:33:42.422Z,99983.44
2022-12-23T17:36:15.572Z,99991.47
2022-12-23T17:38:44.039Z,99984.53
2022-12-23T17:41:19.210Z,99981.88
2022-12-23T17:43:48.220Z,99976.72
2022-12-23T17:46:17.759Z,99972.00
2022-12-23T17:48:47.243Z,99982.00
2022-12-23T17:51:20.285Z,99964.75
2022-12-23T17:53:55.075Z,99961.44
2022-12-23T17:56:28.972Z,99960.88
2022-12-23T17:58:57.399Z,99959.47
2022-12-23T18:01:26.834Z,99957.41
2022-12-23T18:03:55.799Z,99964.78
2022-12-23T18:06:27.462Z,99954.00
2022-12-23T18:08:59.089Z,99959.78
2022-12-23T18:11:37.707Z,99963.19
2022-12-23T18:14:06.284Z,99960.44
2022-12-23T18:16:36.032Z,99954.91
2022-12-23T18:19:06.520Z,99961.19
2022-12-23T18:21:36.674Z,99962.84
2022-12-23T18:24:06.778Z,99964.66
2022-12-23T18:26:34.915Z,99948.13
2022-12-23T18:29:04.267Z,99946.56
2022-12-23T18:31:33.642Z,99945.88
2022-12-23T18:34:01.777Z,99938.13
2022-12-23T18:36:33.939Z,99947.41
2022-12-23T18:39:06.758Z,99943.94
2022-12-23T18:41:35.161Z,99945.47
2022-12-23T18:44:03.673Z,99944.66
2022-12-23T18:46:32.206Z,99947.13
2022-12-23T18:49:01.167Z,99953.41
2022-12-23T18:51:30.948Z,99953.25
2022-12-23T18:53:59.011Z,99955.44
2022-12-23T18:56:31.095Z,99954.91
2022-12-23T18:59:01.655Z,99958.38
2022-12-23T19:01:30.549Z,99960.56
2022-12-23T19:04:01.464Z,99952.13
2022-12-23T19:06:33.132Z,99952.81
2022-12-23T19:09:01.788Z,99952.69
2022-12-23T19:11:32.080Z,99947.97
2022-12-23T19:14:03.817Z,99951.63
2022-12-23T19:16:37.645Z,99944.00
2022-12-23T19:19:06.433Z,99946.09
2022-12-23T19:21:34.650Z,99939.28
2022-12-23T19:24:05.952Z,99944.13
2022-12-23T19:26:35.895Z,99940.66
2022-12-23T19:29:04.096Z,99940.66
2022-12-23T19:31:34.006Z,99940.13
2022-12-23T19:34:02.628Z,99939.16
2022-12-23T19:36:31.412Z,99939.03
2022-12-23T19:39:02.534Z,99936.81
2022-12-23T19:41:30.797Z,99934.72
2022-12-23T19:44:00.869Z,99935.16
2022-12-23T19:46:29.125Z,99931.25
2022-12-23T19:48:58.768Z,99931.84
2022-12-23T19:51:27.571Z,99932.81
2022-12-23T19:53:56.915Z,99936.44
2022-12-23T19:56:26.124Z,99930.31
2022-12-23T19:58:55.010Z,99927.78
2022-12-23T20:01:26.207Z,99935.56
2022-12-23T20:03:56.907Z,99919.88
2022-12-23T20:06:27.985Z,99919.19
2022-12-23T20:09:00.318Z,99925.06
2022-12-23T20:11:32.572Z,99926.97
2022-12-23T20:14:04.344Z,99917.53
2022-12-23T20:16:38.420Z,99915.19
2022-12-23T20:19:07.940Z,99911.44
2022-12-23T20:21:37.466Z,99913.91
2022-12-23T20:24:07.335Z,99915.56
2022-12-23T20:26:35.815Z,99908.09
2022-12-23T20:29:06.428Z,99906.41
2022-12-23T20:31:41.573Z,99898.38
2022-12-23T20:34:15.891Z,99889.91
2022-12-23T20:36:45.833Z,99882.41
2022-12-23T20:39:14.981Z,99878.00
2022-12-23T20:41:44.040Z,99885.63
2022-12-23T20:47:04.761Z,99880.13
2022-12-23T20:49:33.413Z,99880.66
2022-12-23T20:52:03.125Z,99874.94
2022-12-23T20:54:33.899Z,99875.50
2022-12-23T20:57:02.781Z,99877.03
2022-12-23T20:59:34.029Z,99879.97
2022-12-23T21:02:07.023Z,99876.22
2022-12-23T21:04:35.481Z,99878.69
2022-12-23T21:07:03.733Z,99875.00
2022-12-23T21:09:33.189Z,99870.22
2022-12-23T21:12:01.380Z,99878.41
2022-12-23T21:14:30.907Z,99877.56
2022-12-23T21:16:59.183Z,99888.28
2022-12-23T21:19:29.164Z,99883.97
2022-12-23T21:22:03.192Z,99885.25
2022-12-23T21:24:31.496Z,99885.41
2022-12-23T21:26:59.693Z,99882.06
2022-12-23T21:29:27.922Z,99881.91
2022-12-23T21:31:59.333Z,99890.38
2022-12-23T21:34:29.089Z,99885.63
2022-12-23T21:36:57.516Z,99887.31
2022-12-23T21:39:26.476Z,99882.75
2022-12-23T21:41:55.825Z,99876.19
2022-12-23T21:44:25.075Z,99874.81
2022-12-23T21:46:53.935Z,99865.94
2022-12-23T21:49:22.695Z,99868.03
2022-12-23T21:51:52.160Z,99869.53
2022-12-23T21:54:22.663Z,99879.56
2022-12-23T21:56:53.324Z,99866.81
2022-12-23T21:59:21.665Z,99865.16
2022-12-23T22:01:50.940Z,99870.28
2022-12-23T22:04:22.440Z,99865.56
2022-12-23T22:06:52.304Z,99865.00
2022-12-23T22:09:22.295Z,99863.63
2022-12-23T22:11:50.626Z,99860.84
2022-12-23T22:14:20.020Z,99859.31
2022-12-23T22:16:49.167Z,99849.72
2022-12-23T22:19:17.670Z,99850.00
2022-12-23T22:21:46.044Z,99851.28
2022-12-23T22:24:17.675Z,99845.72
2022-12-23T22:26:45.850Z,99847.94
2022-12-23T22:29:13.833Z,99846.28
2022-12-23T22:31:44.255Z,99845.69
2022-12-23T22:34:15.304Z,99845.72
2022-12-23T22:36:44.553Z,99849.91
2022-12-23T22:39:20.495Z,99843.50
2022-12-23T22:41:49.828Z,99842.97
2022-12-23T22:44:17.854Z,99846.44
2022-12-23T22:46:46.440Z,99841.56
2022-12-23T22:49:17.792Z,99842.00
2022-12-23T22:51:46.124Z,99842.81
2022-12-23T22:54:16.101Z,99839.59
2022-12-23T22:56:45.738Z,99842.28
2022-12-23T22:59:23.083Z,99845.34
2022-12-23T23:01:52.004Z,99839.59
2022-12-23T23:04:20.212Z,99844.78
2022-12-23T23:06:49.243Z,99841.44
2022-12-23T23:09:21.952Z,99836.00
2022-12-23T23:11:51.317Z,99844.09
2022-12-23T23:14:19.768Z,99846.88
2022-12-23T23:16:48.132Z,99837.69
2022-12-23T23:19:17.249Z,99839.38
2022-12-23T23:21:45.933Z,99843.56
2022-12-23T23:24:16.807Z,99845.22
2022-12-23T23:26:46.326Z,99839.09
2022-12-23T23:29:16.581Z,99850.09
2022-12-23T23:31:46.224Z,99856.16
2022-12-23T23:34:14.905Z,99854.66
2022-12-23T23:36:44.695Z,99851.47
2022-12-23T23:39:13.820Z,99856.72
2022-12-23T23:41:42.425Z,99858.94
2022-12-23T23:44:12.579Z,99857.16
2022-12-23T23:46:40.964Z,99861.59
2022-12-23T23:49:10.604Z,99853.25
2022-12-23T23:51:39.043Z,99858.38
2022-12-23T23:54:08.124Z,99860.34
2022-12-23T23:56:39.692Z,99864.63
2022-12-23T23:59:08.803Z,99859.09
